sensor_id;sensor_type;location;lat;lon;timestamp;pressure;altitude;pressure_sealevel;temperature;humidity
71996;BME280;59862;47.732;7.346;2022-11-11T00:01:14;99443.88;;;6.60;88.09
71996;BME280;59862;47.732;7.346;2022-11-11T00:03:38;99446.16;;;6.59;88.09
71996;BME280;59862;47.732;7.346;2022-11-11T00:06:09;99441.46;;;6.52;88.08
71996;BME280;59862;47.732;7.346;2022-11-11T00:08:37;99451.52;;;6.43;88.18
71996;BME280;59862;47.732;7.346;2022-11-11T00:11:07;99448.00;;;6.42;88.27
71996;BME280;59862;47.732;7.346;2022-11-11T00:13:35;99450.67;;;6.42;88.30
71996;BME280;59862;47.732;7.346;2022-11-11T00:16:06;99450.42;;;6.40;88.26
71996;BME280;59862;47.732;7.346;2022-11-11T00:18:34;99450.42;;;6.40;88.24
71996;BME280;59862;47.732;7.346;2022-11-11T00:21:19;99452.86;;;6.43;88.25
71996;BME280;59862;47.732;7.346;2022-11-11T00:24:15;99448.95;;;6.41;88.24
71996;BME280;59862;47.732;7.346;2022-11-11T00:26:52;99445.70;;;6.38;88.23
71996;BME280;59862;47.732;7.346;2022-11-11T00:29:20;99445.95;;;6.24;88.35
71996;BME280;59862;47.732;7.346;2022-11-11T00:31:48;99444.37;;;6.21;88.56
71996;BME280;59862;47.732;7.346;2022-11-11T00:34:33;99448.84;;;6.21;88.79
71996;BME280;59862;47.732;7.346;2022-11-11T00:37:01;99445.59;;;6.17;88.84
71996;BME280;59862;47.732;7.346;2022-11-11T00:39:29;99437.94;;;6.18;88.89
71996;BME280;59862;47.732;7.346;2022-11-11T00:41:56;99433.09;;;6.18;88.86
71996;BME280;59862;47.732;7.346;2022-11-11T00:44:23;99434.68;;;6.15;88.86
71996;BME280;59862;47.732;7.346;2022-11-11T00:46:51;99436.36;;;6.16;88.97
71996;BME280;59862;47.732;7.346;2022-11-11T00:49:36;99433.46;;;6.07;89.15
71996;BME280;59862;47.732;7.346;2022-11-11T00:52:21;99435.27;;;6.07;89.30
71996;BME280;59862;47.732;7.346;2022-11-11T00:54:49;99437.33;;;6.09;89.35
71996;BME280;59862;47.732;7.346;2022-11-11T00:57:16;99436.63;;;6.13;89.35
71996;BME280;59862;47.732;7.346;2022-11-11T00:59:43;99441.94;;;6.18;89.27
71996;BME280;59862;47.732;7.346;2022-11-11T01:02:11;99446.66;;;6.20;89.19
71996;BME280;59862;47.732;7.346;2022-11-11T01:04:38;99448.84;;;6.21;89.11
71996;BME280;59862;47.732;7.346;2022-11-11T01:07:06;99453.80;;;6.20;89.05
71996;BME280;59862;47.732;7.346;2022-11-11T01:09:33;99462.78;;;6.19;89.05
71996;BME280;59862;47.732;7.346;2022-11-11T01:12:00;99461.70;;;6.21;89.01
71996;BME280;59862;47.732;7.346;2022-11-11T01:14:29;99469.31;;;6.20;88.89
71996;BME280;59862;47.732;7.346;2022-11-11T01:16:57;99475.98;;;6.15;88.81
71996;BME280;59862;47.732;7.346;2022-11-11T01:19:24;99481.31;;;6.15;88.85
71996;BME280;59862;47.732;7.346;2022-11-11T01:21:51;99488.58;;;6.18;88.83
71996;BME280;59862;47.732;7.346;2022-11-11T01:24:19;99485.05;;;6.18;88.81
71996;BME280;59862;47.732;7.346;2022-11-11T01:26:46;99487.12;;;6.14;88.76
71996;BME280;59862;47.732;7.346;2022-11-11T01:29:14;99481.92;;;6.13;88.72
71996;BME280;59862;47.732;7.346;2022-11-11T01:31:41;99486.88;;;6.11;88.66
71996;BME280;59862;47.732;7.346;2022-11-11T01:34:09;99491.47;;;6.09;88.56
71996;BME280;59862;47.732;7.346;2022-11-11T01:36:36;99498.13;;;6.09;88.53
71996;BME280;59862;47.732;7.346;2022-11-11T01:39:04;99494.74;;;6.07;88.50
71996;BME280;59862;47.732;7.346;2022-11-11T01:41:33;99489.03;;;6.06;88.47
71996;BME280;59862;47.732;7.346;2022-11-11T01:44:16;99487.95;;;6.03;88.43
71996;BME280;59862;47.732;7.346;2022-11-11T01:46:52;99493.77;;;5.97;88.49
71996;BME280;59862;47.732;7.346;2022-11-11T01:49:44;99493.39;;;5.91;88.67
71996;BME280;59862;47.732;7.346;2022-11-11T01:52:18;99494.69;;;5.85;88.90
71996;BME280;59862;47.732;7.346;2022-11-11T01:54:54;99496.41;;;5.86;89.01
71996;BME280;59862;47.732;7.346;2022-11-11T02:00:14;99506.17;;;5.80;89.06
71996;BME280;59862;47.732;7.346;2022-11-11T02:03:00;99509.05;;;5.77;89.19
71996;BME280;59862;47.732;7.346;2022-11-11T02:05:27;99506.90;;;5.82;89.20
71996;BME280;59862;47.732;7.346;2022-11-11T02:08:20;99503.25;;;5.83;89.12
71996;BME280;59862;47.732;7.346;2022-11-11T02:13:30;99514.00;;;5.76;89.13
71996;BME280;59862;47.732;7.346;2022-11-11T02:16:16;99510.73;;;5.78;89.18
71996;BME280;59862;47.732;7.346;2022-11-11T02:18:43;99506.73;;;5.78;89.13
71996;BME280;59862;47.732;7.346;2022-11-11T02:21:13;99504.08;;;5.78;89.09
71996;BME280;59862;47.732;7.346;2022-11-11T02:23:55;99508.41;;;5.68;89.22
71996;BME280;59862;47.732;7.346;2022-11-11T02:26:21;99510.00;;;5.71;89.46
71996;BME280;59862;47.732;7.346;2022-11-11T02:28:50;99505.22;;;5.52;89.90
71996;BME280;59862;47.732;7.346;2022-11-11T02:31:25;99510.30;;;5.55;90.33
71996;BME280;59862;47.732;7.346;2022-11-11T02:33:50;99507.42;;;5.64;90.57
71996;BME280;59862;47.732;7.346;2022-11-11T02:36:17;99506.26;;;5.73;90.73
71996;BME280;59862;47.732;7.346;2022-11-11T02:38:45;99501.41;;;5.78;90.92
71996;BME280;59862;47.732;7.346;2022-11-11T02:41:13;99502.11;;;5.93;90.94
71996;BME280;59862;47.732;7.346;2022-11-11T02:43:58;99499.92;;;5.98;90.86
71996;BME280;59862;47.732;7.346;2022-11-11T02:46:25;99502.48;;;5.99;90.76
71996;BME280;59862;47.732;7.346;2022-11-11T02:48:53;99507.81;;;6.05;90.71
71996;BME280;59862;47.732;7.346;2022-11-11T02:51:20;99518.59;;;6.09;90.67
71996;BME280;59862;47.732;7.346;2022-11-11T02:53:48;99521.29;;;6.15;90.48
71996;BME280;59862;47.732;7.346;2022-11-11T02:56:15;99526.02;;;6.17;90.29
71996;BME280;59862;47.732;7.346;2022-11-11T02:58:44;99531.56;;;6.13;90.08
71996;BME280;59862;47.732;7.346;2022-11-11T03:01:11;99539.69;;;6.12;89.87
71996;BME280;59862;47.732;7.346;2022-11-11T03:03:40;99539.88;;;5.98;89.72
71996;BME280;59862;47.732;7.346;2022-11-11T03:06:08;99546.32;;;5.95;89.62
71996;BME280;59862;47.732;7.346;2022-11-11T03:08:35;99550.66;;;5.96;89.41
71996;BME280;59862;47.732;7.346;2022-11-11T03:11:03;99542.89;;;5.93;89.13
71996;BME280;59862;47.732;7.346;2022-11-11T03:13:30;99549.42;;;5.89;88.85
71996;BME280;59862;47.732;7.346;2022-11-11T03:15:58;99552.17;;;5.82;88.65
71996;BME280;59862;47.732;7.346;2022-11-11T03:18:25;99549.60;;;5.75;88.56
71996;BME280;59862;47.732;7.346;2022-11-11T03:20:52;99550.41;;;5.70;88.41
71996;BME280;59862;47.732;7.346;2022-11-11T03:23:32;99552.95;;;5.66;88.24
71996;BME280;59862;47.732;7.346;2022-11-11T03:25:59;99551.09;;;5.61;88.11
71996;BME280;59862;47.732;7.346;2022-11-11T03:28:27;99555.68;;;5.54;88.08
71996;BME280;59862;47.732;7.346;2022-11-11T03:30:54;99561.06;;;5.41;88.22
71996;BME280;59862;47.732;7.346;2022-11-11T03:33:21;99564.61;;;5.29;88.37
71996;BME280;59862;47.732;7.346;2022-11-11T03:35:49;99559.67;;;5.30;88.45
71996;BME280;59862;47.732;7.346;2022-11-11T03:38:16;99568.66;;;5.34;88.36
71996;BME280;59862;47.732;7.346;2022-11-11T03:40:52;99571.84;;;5.21;88.44
71996;BME280;59862;47.732;7.346;2022-11-11T03:43:24;99568.58;;;5.23;88.48
71996;BME280;59862;47.732;7.346;2022-11-11T03:45:53;99573.26;;;5.20;88.43
71996;BME280;59862;47.732;7.346;2022-11-11T03:48:21;99569.27;;;5.20;88.36
71996;BME280;59862;47.732;7.346;2022-11-11T03:50:50;99571.93;;;5.20;88.28
71996;BME280;59862;47.732;7.346;2022-11-11T03:53:19;99566.47;;;5.16;88.26
71996;BME280;59862;47.732;7.346;2022-11-11T03:55:47;99572.03;;;5.13;88.28
71996;BME280;59862;47.732;7.346;2022-11-11T03:58:15;99569.72;;;5.14;88.20
71996;BME280;59862;47.732;7.346;2022-11-11T04:00:43;99567.91;;;5.14;88.14
71996;BME280;59862;47.732;7.346;2022-11-11T04:03:15;99558.22;;;5.13;88.06
71996;BME280;59862;47.732;7.346;2022-11-11T04:06:01;99559.45;;;5.15;88.01
71996;BME280;59862;47.732;7.346;2022-11-11T04:08:47;99564.38;;;5.08;87.95
71996;BME280;59862;47.732;7.346;2022-11-11T04:11:38;99555.01;;;5.03;87.97
71996;BME280;59862;47.732;7.346;2022-11-11T04:14:11;99560.66;;;4.98;88.06
71996;BME280;59862;47.732;7.346;2022-11-11T04:16:57;99557.86;;;4.94;88.18
71996;BME280;59862;47.732;7.346;2022-11-11T04:19:25;99554.34;;;4.94;88.23
71996;BME280;59862;47.732;7.346;2022-11-11T04:22:10;99556.50;;;4.89;88.29
71996;BME280;59862;47.732;7.346;2022-11-11T04:24:38;99550.05;;;4.86;88.36
71996;BME280;59862;47.732;7.346;2022-11-11T04:27:23;99545.39;;;4.77;88.48
71996;BME280;59862;47.732;7.346;2022-11-11T04:29:51;99542.97;;;4.74;88.65
71996;BME280;59862;47.732;7.346;2022-11-11T04:32:20;99544.30;;;4.74;88.72
71996;BME280;59862;47.732;7.346;2022-11-11T04:35:10;99540.31;;;4.74;88.75
71996;BME280;59862;47.732;7.346;2022-11-11T04:37:46;99542.31;;;4.70;88.74
71996;BME280;59862;47.732;7.346;2022-11-11T04:40:17;99542.91;;;4.68;88.74
71996;BME280;59862;47.732;7.346;2022-11-11T04:43:02;99542.08;;;4.68;88.75
71996;BME280;59862;47.732;7.346;2022-11-11T04:45:30;99537.02;;;4.57;88.86
71996;BME280;59862;47.732;7.346;2022-11-11T04:48:03;99536.28;;;4.55;89.28
71996;BME280;59862;47.732;7.346;2022-11-11T04:50:38;99540.81;;;4.60;89.63
71996;BME280;59862;47.732;7.346;2022-11-11T04:53:13;99543.08;;;4.59;89.85
71996;BME280;59862;47.732;7.346;2022-11-11T04:55:37;99537.91;;;4.63;89.97
71996;BME280;59862;47.732;7.346;2022-11-11T04:58:24;99540.22;;;4.63;90.02
71996;BME280;59862;47.732;7.346;2022-11-11T05:00:53;99539.48;;;4.60;90.03
71996;BME280;59862;47.732;7.346;2022-11-11T05:03:20;99540.92;;;4.59;90.03
71996;BME280;59862;47.732;7.346;2022-11-11T05:05:53;99543.84;;;4.49;90.17
71996;BME280;59862;47.732;7.346;2022-11-11T05:08:41;99541.94;;;4.38;90.44
71996;BME280;59862;47.732;7.346;2022-11-11T05:11:27;99541.09;;;4.25;90.60
71996;BME280;59862;47.732;7.346;2022-11-11T05:13:57;99539.14;;;4.22;90.70
71996;BME280;59862;47.732;7.346;2022-11-11T05:16:48;99552.14;;;4.19;90.79
71996;BME280;59862;47.732;7.346;2022-11-11T05:19:34;99548.70;;;4.24;90.83
71996;BME280;59862;47.732;7.346;2022-11-11T05:24:56;99525.20;;;4.18;91.47
71996;BME280;59862;47.732;7.346;2022-11-11T05:27:42;99543.47;;;4.35;91.75
71996;BME280;59862;47.732;7.346;2022-11-11T05:30:12;99543.89;;;4.42;91.78
71996;BME280;59862;47.732;7.346;2022-11-11T05:32:40;99550.48;;;4.49;91.74
71996;BME280;59862;47.732;7.346;2022-11-11T05:35:09;99551.30;;;4.44;91.68
71996;BME280;59862;47.732;7.346;2022-11-11T05:37:39;99554.03;;;4.55;91.72
71996;BME280;59862;47.732;7.346;2022-11-11T05:40:07;99555.59;;;4.52;91.74
71996;BME280;59862;47.732;7.346;2022-11-11T05:42:39;99554.89;;;4.55;91.75
71996;BME280;59862;47.732;7.346;2022-11-11T05:45:05;99552.80;;;4.66;91.62
71996;BME280;59862;47.732;7.346;2022-11-11T05:47:33;99565.63;;;4.67;91.44
71996;BME280;59862;47.732;7.346;2022-11-11T05:50:00;99571.33;;;4.68;91.26
71996;BME280;59862;47.732;7.346;2022-11-11T05:52:28;99572.22;;;4.74;91.07
71996;BME280;59862;47.732;7.346;2022-11-11T05:54:55;99575.94;;;4.71;90.81
71996;BME280;59862;47.732;7.346;2022-11-11T05:57:22;99574.13;;;4.72;90.54
71996;BME280;59862;47.732;7.346;2022-11-11T05:59:50;99588.37;;;4.71;90.27
71996;BME280;59862;47.732;7.346;2022-11-11T06:02:17;99593.59;;;4.59;90.08
71996;BME280;59862;47.732;7.346;2022-11-11T06:04:46;99593.66;;;4.65;89.90
71996;BME280;59862;47.732;7.346;2022-11-11T06:07:14;99595.92;;;4.64;89.62
71996;BME280;59862;47.732;7.346;2022-11-11T06:09:41;99603.05;;;4.63;89.42
71996;BME280;59862;47.732;7.346;2022-11-11T06:12:08;99604.14;;;4.61;89.20
71996;BME280;59862;47.732;7.346;2022-11-11T06:14:36;99611.56;;;4.56;89.01
71996;BME280;59862;47.732;7.346;2022-11-11T06:17:03;99608.84;;;4.50;88.96
71996;BME280;59862;47.732;7.346;2022-11-11T06:19:31;99612.16;;;4.54;88.97
71996;BME280;59862;47.732;7.346;2022-11-11T06:21:58;99610.71;;;4.55;88.87
71996;BME280;59862;47.732;7.346;2022-11-11T06:24:27;99613.25;;;4.44;88.86
71996;BME280;59862;47.732;7.346;2022-11-11T06:26:55;99611.92;;;4.44;89.00
71996;BME280;59862;47.732;7.346;2022-11-11T06:29:22;99621.85;;;4.35;89.29
71996;BME280;59862;47.732;7.346;2022-11-11T06:31:50;99619.31;;;4.34;89.46
71996;BME280;59862;47.732;7.346;2022-11-11T06:34:17;99625.28;;;4.37;89.54
71996;BME280;59862;47.732;7.346;2022-11-11T06:36:45;99628.14;;;4.34;89.59
71996;BME280;59862;47.732;7.346;2022-11-11T06:39:12;99630.92;;;4.45;89.57
71996;BME280;59862;47.732;7.346;2022-11-11T06:41:40;99639.36;;;4.45;89.50
71996;BME280;59862;47.732;7.346;2022-11-11T06:44:07;99634.00;;;4.39;89.71
71996;BME280;59862;47.732;7.346;2022-11-11T06:46:34;99639.12;;;4.35;89.89
71996;BME280;59862;47.732;7.346;2022-11-11T06:49:02;99641.27;;;4.30;90.21
71996;BME280;59862;47.732;7.346;2022-11-11T06:51:29;99639.31;;;4.39;90.49
71996;BME280;59862;47.732;7.346;2022-11-11T06:53:57;99645.45;;;4.40;90.72
71996;BME280;59862;47.732;7.346;2022-11-11T06:56:24;99647.38;;;4.50;90.86
71996;BME280;59862;47.732;7.346;2022-11-11T06:58:51;99651.13;;;4.60;90.89
71996;BME280;59862;47.732;7.346;2022-11-11T07:01:19;99656.13;;;4.65;91.08
71996;BME280;59862;47.732;7.346;2022-11-11T07:03:46;99658.47;;;4.70;91.33
71996;BME280;59862;47.732;7.346;2022-11-11T07:06:14;99658.15;;;4.87;91.39
71996;BME280;59862;47.732;7.346;2022-11-11T07:08:41;99668.03;;;4.97;91.33
71996;BME280;59862;47.732;7.346;2022-11-11T07:11:09;99672.39;;;5.11;91.20
71996;BME280;59862;47.732;7.346;2022-11-11T07:13:37;99677.39;;;5.15;91.03
71996;BME280;59862;47.732;7.346;2022-11-11T07:16:05;99674.16;;;5.23;90.84
71996;BME280;59862;47.732;7.346;2022-11-11T07:18:33;99682.71;;;5.33;90.66
71996;BME280;59862;47.732;7.346;2022-11-11T07:21:00;99684.34;;;5.42;90.43
71996;BME280;59862;47.732;7.346;2022-11-11T07:23:28;99679.55;;;5.47;90.21
71996;BME280;59862;47.732;7.346;2022-11-11T07:25:55;99687.59;;;5.52;90.05
71996;BME280;59862;47.732;7.346;2022-11-11T07:28:23;99684.38;;;5.65;89.86
71996;BME280;59862;47.732;7.346;2022-11-11T07:30:51;99684.30;;;5.72;89.62
71996;BME280;59862;47.732;7.346;2022-11-11T07:33:18;99687.16;;;5.82;89.34
71996;BME280;59862;47.732;7.346;2022-11-11T07:35:45;99695.73;;;5.92;89.09
71996;BME280;59862;47.732;7.346;2022-11-11T07:38:13;99685.42;;;5.93;88.91
71996;BME280;59862;47.732;7.346;2022-11-11T07:40:40;99689.05;;;6.10;88.77
71996;BME280;59862;47.732;7.346;2022-11-11T07:43:08;99695.42;;;6.32;88.60
71996;BME280;59862;47.732;7.346;2022-11-11T07:45:35;99695.73;;;6.51;88.48
71996;BME280;59862;47.732;7.346;2022-11-11T07:48:03;99702.25;;;6.81;88.90
71996;BME280;59862;47.732;7.346;2022-11-11T07:50:30;99703.73;;;7.13;88.89
71996;BME280;59862;47.732;7.346;2022-11-11T07:52:58;99710.77;;;7.47;88.76
71996;BME280;59862;47.732;7.346;2022-11-11T07:55:25;99705.78;;;7.82;88.81
71996;BME280;59862;47.732;7.346;2022-11-11T07:57:53;99714.09;;;7.99;88.43
71996;BME280;59862;47.732;7.346;2022-11-11T08:00:20;99712.30;;;7.94;87.57
71996;BME280;59862;47.732;7.346;2022-11-11T08:02:49;99713.38;;;7.97;86.13
71996;BME280;59862;47.732;7.346;2022-11-11T08:05:17;99718.05;;;8.21;86.20
71996;BME280;59862;47.732;7.346;2022-11-11T08:07:44;99707.59;;;9.02;84.64
71996;BME280;59862;47.732;7.346;2022-11-11T08:10:11;99707.59;;;9.02;84.64
71996;BME280;59862;47.732;7.346;2022-11-11T08:12:39;99715.98;;;9.18;81.56
71996;BME280;59862;47.732;7.346;2022-11-11T08:15:24;99713.84;;;9.58;79.94
71996;BME280;59862;47.732;7.346;2022-11-11T08:17:52;99709.39;;;9.77;77.89
71996;BME280;59862;47.732;7.346;2022-11-11T08:20:19;99708.20;;;9.76;76.43
71996;BME280;59862;47.732;7.346;2022-11-11T08:22:47;99713.42;;;9.53;75.86
71996;BME280;59862;47.732;7.346;2022-11-11T08:25:15;99713.94;;;9.47;76.29
71996;BME280;59862;47.732;7.346;2022-11-11T08:27:43;99709.02;;;9.67;75.28
71996;BME280;59862;47.732;7.346;2022-11-11T08:30:11;99700.97;;;9.67;74.88
71996;BME280;59862;47.732;7.346;2022-11-11T08:32:38;99705.93;;;9.71;73.80
71996;BME280;59862;47.732;7.346;2022-11-11T08:35:06;99707.20;;;9.77;73.95
71996;BME280;59862;47.732;7.346;2022-11-11T08:37:34;99712.01;;;9.98;73.80
71996;BME280;59862;47.732;7.346;2022-11-11T08:40:02;99719.13;;;10.03;73.48
71996;BME280;59862;47.732;7.346;2022-11-11T08:42:30;99720.64;;;10.45;72.55
71996;BME280;59862;47.732;7.346;2022-11-11T08:44:57;99721.53;;;10.79;71.90
71996;BME280;59862;47.732;7.346;2022-11-11T08:47:24;99721.33;;;10.38;71.33
71996;BME280;59862;47.732;7.346;2022-11-11T08:49:52;99716.11;;;10.36;70.89
71996;BME280;59862;47.732;7.346;2022-11-11T08:52:19;99714.50;;;9.80;72.46
71996;BME280;59862;47.732;7.346;2022-11-11T08:54:47;99719.11;;;10.18;71.81
71996;BME280;59862;47.732;7.346;2022-11-11T08:57:14;99721.45;;;10.17;71.56
71996;BME280;59862;47.732;7.346;2022-11-11T08:59:41;99722.89;;;10.40;71.24
71996;BME280;59862;47.732;7.346;2022-11-11T09:02:11;99721.55;;;10.59;70.95
71996;BME280;59862;47.732;7.346;2022-11-11T09:04:39;99718.86;;;10.59;70.36
71996;BME280;59862;47.732;7.346;2022-11-11T09:07:09;99715.61;;;10.85;70.40
71996;BME280;59862;47.732;7.346;2022-11-11T09:09:37;99716.31;;;10.77;70.34
71996;BME280;59862;47.732;7.346;2022-11-11T09:12:04;99718.45;;;10.74;70.80
71996;BME280;59862;47.732;7.346;2022-11-11T09:14:32;99714.66;;;10.90;71.19
71996;BME280;59862;47.732;7.346;2022-11-11T09:16:59;99716.16;;;10.98;70.21
71996;BME280;59862;47.732;7.346;2022-11-11T09:19:27;99717.84;;;10.99;70.06
71996;BME280;59862;47.732;7.346;2022-11-11T09:21:54;99713.28;;;11.09;69.36
71996;BME280;59862;47.732;7.346;2022-11-11T09:24:21;99714.80;;;11.54;68.45
71996;BME280;59862;47.732;7.346;2022-11-11T09:26:50;99707.66;;;11.72;67.62
71996;BME280;59862;47.732;7.346;2022-11-11T09:29:18;99710.34;;;11.85;67.13
71996;BME280;59862;47.732;7.346;2022-11-11T09:31:46;99708.33;;;11.60;68.18
71996;BME280;59862;47.732;7.346;2022-11-11T09:34:14;99709.58;;;12.06;68.13
71996;BME280;59862;47.732;7.346;2022-11-11T09:36:42;99711.83;;;12.11;67.91
71996;BME280;59862;47.732;7.346;2022-11-11T09:39:09;99711.99;;;12.41;66.47
71996;BME280;59862;47.732;7.346;2022-11-11T09:41:47;99712.06;;;12.49;65.79
71996;BME280;59862;47.732;7.346;2022-11-11T09:44:33;99710.34;;;12.12;66.55
71996;BME280;59862;47.732;7.346;2022-11-11T09:47:15;99713.09;;;12.03;67.78
71996;BME280;59862;47.732;7.346;2022-11-11T09:52:36;99708.91;;;12.36;67.42
71996;BME280;59862;47.732;7.346;2022-11-11T09:55:05;99719.87;;;12.38;67.38
71996;BME280;59862;47.732;7.346;2022-11-11T09:57:38;99727.33;;;11.72;68.46
71996;BME280;59862;47.732;7.346;2022-11-11T10:00:15;99720.89;;;11.32;69.29
71996;BME280;59862;47.732;7.346;2022-11-11T10:03:00;99719.13;;;11.27;70.43
71996;BME280;59862;47.732;7.346;2022-11-11T10:05:32;99714.61;;;11.28;70.71
71996;BME280;59862;47.732;7.346;2022-11-11T10:08:25;99711.66;;;11.35;71.36
71996;BME280;59862;47.732;7.346;2022-11-11T10:10:52;99709.28;;;11.32;72.08
71996;BME280;59862;47.732;7.346;2022-11-11T10:13:24;99704.61;;;11.34;71.95
71996;BME280;59862;47.732;7.346;2022-11-11T10:16:03;99700.09;;;11.34;72.66
71996;BME280;59862;47.732;7.346;2022-11-11T10:21:49;99692.69;;;11.69;71.85
71996;BME280;59862;47.732;7.346;2022-11-11T10:24:10;99697.55;;;11.83;72.01
71996;BME280;59862;47.732;7.346;2022-11-11T10:26:38;99690.66;;;11.98;72.30
71996;BME280;59862;47.732;7.346;2022-11-11T10:29:16;99688.67;;;12.00;72.70
71996;BME280;59862;47.732;7.346;2022-11-11T10:31:40;99680.46;;;12.19;72.57
71996;BME280;59862;47.732;7.346;2022-11-11T10:34:13;99680.64;;;12.36;71.17
71996;BME280;59862;47.732;7.346;2022-11-11T10:36:51;99675.05;;;12.51;71.25
71996;BME280;59862;47.732;7.346;2022-11-11T10:39:23;99679.94;;;12.69;71.25
71996;BME280;59862;47.732;7.346;2022-11-11T10:41:51;99675.59;;;12.98;69.85
71996;BME280;59862;47.732;7.346;2022-11-11T10:44:28;99680.38;;;13.25;68.54
71996;BME280;59862;47.732;7.346;2022-11-11T10:47:08;99682.84;;;13.44;67.29
71996;BME280;59862;47.732;7.346;2022-11-11T10:49:35;99673.83;;;14.07;66.16
71996;BME280;59862;47.732;7.346;2022-11-11T10:54:42;99663.27;;;13.84;65.84
71996;BME280;59862;47.732;7.346;2022-11-11T10:57:13;99654.30;;;13.08;67.89
71996;BME280;59862;47.732;7.346;2022-11-11T10:59:44;99654.57;;;13.56;66.86
71996;BME280;59862;47.732;7.346;2022-11-11T11:02:20;99644.95;;;14.04;66.61
71996;BME280;59862;47.732;7.346;2022-11-11T11:04:52;99648.78;;;14.59;64.71
71996;BME280;59862;47.732;7.346;2022-11-11T11:07:27;99640.66;;;14.39;65.10
71996;BME280;59862;47.732;7.346;2022-11-11T11:10:11;99635.84;;;13.97;65.80
71996;BME280;59862;47.732;7.346;2022-11-11T11:15:19;99624.78;;;13.28;68.63
71996;BME280;59862;47.732;7.346;2022-11-11T11:18:13;99620.97;;;13.09;68.11
71996;BME280;59862;47.732;7.346;2022-11-11T11:20:20;99620.33;;;13.15;68.51
71996;BME280;59862;47.732;7.346;2022-11-11T11:22:56;99609.63;;;13.27;68.67
71996;BME280;59862;47.732;7.346;2022-11-11T11:25:27;99604.16;;;12.93;69.29
71996;BME280;59862;47.732;7.346;2022-11-11T11:28:09;99603.86;;;12.97;68.98
71996;BME280;59862;47.732;7.346;2022-11-11T11:30:36;99603.14;;;13.12;69.80
71996;BME280;59862;47.732;7.346;2022-11-11T11:33:06;99599.83;;;13.26;69.46
71996;BME280;59862;47.732;7.346;2022-11-11T11:35:42;99601.98;;;13.56;68.24
71996;BME280;59862;47.732;7.346;2022-11-11T11:38:11;99599.72;;;13.36;67.39
71996;BME280;59862;47.732;7.346;2022-11-11T11:40:54;99596.17;;;13.35;68.34
71996;BME280;59862;47.732;7.346;2022-11-11T11:43:26;99594.23;;;13.53;68.02
71996;BME280;59862;47.732;7.346;2022-11-11T11:45:59;99590.80;;;13.43;67.70
71996;BME280;59862;47.732;7.346;2022-11-11T11:48:36;99588.94;;;13.36;68.27
71996;BME280;59862;47.732;7.346;2022-11-11T11:51:12;99589.45;;;13.43;69.01
71996;BME280;59862;47.732;7.346;2022-11-11T11:56:48;99582.13;;;13.65;68.42
71996;BME280;59862;47.732;7.346;2022-11-11T12:00:03;99583.17;;;13.77;67.91
71996;BME280;59862;47.732;7.346;2022-11-11T12:02:06;99586.23;;;13.94;67.62
71996;BME280;59862;47.732;7.346;2022-11-11T12:04:39;99578.50;;;14.03;67.21
71996;BME280;59862;47.732;7.346;2022-11-11T12:12:54;99582.07;;;14.56;66.29
71996;BME280;59862;47.732;7.346;2022-11-11T12:15:36;99574.57;;;15.02;65.80
71996;BME280;59862;47.732;7.346;2022-11-11T12:18:18;99585.11;;;15.32;64.43
71996;BME280;59862;47.732;7.346;2022-11-11T12:20:45;99577.59;;;15.03;63.79
71996;BME280;59862;47.732;7.346;2022-11-11T12:26:46;99577.76;;;15.05;64.44
71996;BME280;59862;47.732;7.346;2022-11-11T12:34:11;99567.40;;;15.94;61.85
71996;BME280;59862;47.732;7.346;2022-11-11T12:36:58;99571.73;;;15.77;62.26
71996;BME280;59862;47.732;7.346;2022-11-11T12:42:26;99568.53;;;16.68;57.69
71996;BME280;59862;47.732;7.346;2022-11-11T12:50:37;99573.16;;;17.80;54.63
71996;BME280;59862;47.732;7.346;2022-11-11T12:53:30;99563.91;;;19.19;53.47
71996;BME280;59862;47.732;7.346;2022-11-11T12:56:12;99565.02;;;19.14;53.17
71996;BME280;59862;47.732;7.346;2022-11-11T12:58:54;99570.61;;;19.81;51.40
71996;BME280;59862;47.732;7.346;2022-11-11T13:04:44;99567.88;;;19.81;50.96
71996;BME280;59862;47.732;7.346;2022-11-11T13:07:35;99553.95;;;19.05;53.76
71996;BME280;59862;47.732;7.346;2022-11-11T13:12:37;99560.67;;;19.84;51.78
71996;BME280;59862;47.732;7.346;2022-11-11T13:17:35;99555.20;;;18.47;52.82
71996;BME280;59862;47.732;7.346;2022-11-11T13:22:43;99559.69;;;18.40;56.10
71996;BME280;59862;47.732;7.346;2022-11-11T13:25:20;99560.85;;;17.99;57.14
71996;BME280;59862;47.732;7.346;2022-11-11T13:27:54;99562.14;;;17.92;56.93
71996;BME280;59862;47.732;7.346;2022-11-11T13:33:15;99556.40;;;17.37;57.85
71996;BME280;59862;47.732;7.346;2022-11-11T13:35:57;99552.33;;;17.37;57.62
71996;BME280;59862;47.732;7.346;2022-11-11T13:38:37;99549.70;;;17.04;57.43
71996;BME280;59862;47.732;7.346;2022-11-11T13:41:06;99556.08;;;16.78;58.60
71996;BME280;59862;47.732;7.346;2022-11-11T13:43:39;99557.03;;;17.14;58.64
71996;BME280;59862;47.732;7.346;2022-11-11T13:46:05;99558.58;;;17.12;57.13
71996;BME280;59862;47.732;7.346;2022-11-11T13:48:46;99556.27;;;17.64;57.59
71996;BME280;59862;47.732;7.346;2022-11-11T13:53:51;99571.38;;;18.82;53.66
71996;BME280;59862;47.732;7.346;2022-11-11T13:56:27;99564.88;;;18.94;53.31
71996;BME280;59862;47.732;7.346;2022-11-11T13:58:55;99569.58;;;19.41;52.38
71996;BME280;59862;47.732;7.346;2022-11-11T14:01:30;99571.83;;;19.72;51.08
71996;BME280;59862;47.732;7.346;2022-11-11T14:03:58;99574.07;;;18.12;52.71
71996;BME280;59862;47.732;7.346;2022-11-11T14:06:28;99573.70;;;18.58;53.07
71996;BME280;59862;47.732;7.346;2022-11-11T14:08:57;99577.34;;;19.10;53.13
71996;BME280;59862;47.732;7.346;2022-11-11T14:11:30;99577.36;;;19.68;50.06
71996;BME280;59862;47.732;7.346;2022-11-11T14:22:00;99572.45;;;21.26;47.73
71996;BME280;59862;47.732;7.346;2022-11-11T14:24:39;99566.80;;;20.81;46.64
71996;BME280;59862;47.732;7.346;2022-11-11T14:29:46;99569.88;;;19.83;49.14
71996;BME280;59862;47.732;7.346;2022-11-11T14:37:31;99576.08;;;18.14;54.94
71996;BME280;59862;47.732;7.346;2022-11-11T14:39:58;99578.14;;;17.77;56.59
71996;BME280;59862;47.732;7.346;2022-11-11T14:47:59;99586.42;;;16.58;60.83
71996;BME280;59862;47.732;7.346;2022-11-11T14:53:15;99588.37;;;15.66;62.99
71996;BME280;59862;47.732;7.346;2022-11-11T14:55:50;99582.77;;;15.25;64.28